OBBI/BAH METAR and TAF weather

Enter ICAO airport designator
Station Type Date Time Source
OBBI METAR 2021/09/24 05:00 UTC NOAA

OBBI 240500Z 29004KT CAVOK 32/16 Q1006 NOSIG


Station Type Date Time Source
OBBI Decoded METAR 2021/09/24 05:00 UTC NOAA

Bahrain International Airport , Bahrain (OBBI) 26-16N 050-39E 2M
Sep 24, 2021 - 01:00 AM EDT / 2021.09.24 0500 UTC
Wind: from the WNW (290 degrees) at 5 MPH (4 KT):0
Visibility: greater than 7 mile(s):0
Temperature: 89 F (32 C)
Dew Point: 60 F (16 C)
Relative Humidity: 38%
Pressure (altimeter): 29.71 in. Hg (1006 hPa)
ob: OBBI 240500Z 29004KT CAVOK 32/16 Q1006 NOSIG
cycle: 5

Station Type Date Time Source
OBBI TAF 2021/09/23 18:11 UTC NOAA

TAF OBBI 231700Z 2318/2500 30003KT CAVOK
BECMG 2406/2409 36010KT
BECMG 2421/2500 VRB03KT

Example: see airport list